createdAt,value
2023-03-17T00:01:55.070Z,1.50
2023-03-17T00:04:24.352Z,1.50
2023-03-17T00:06:53.086Z,1.50
2023-03-17T00:09:22.382Z,1.50
2023-03-17T00:11:50.212Z,1.40
2023-03-17T00:14:18.159Z,1.40
2023-03-17T00:16:50.053Z,1.50
2023-03-17T00:19:28.500Z,1.50
2023-03-17T00:21:56.327Z,1.50
2023-03-17T00:24:23.409Z,1.50
2023-03-17T00:26:50.277Z,1.50
2023-03-17T00:29:17.284Z,1.50
2023-03-17T00:31:45.743Z,1.50
2023-03-17T00:34:17.430Z,1.50
2023-03-17T00:36:48.227Z,1.50
2023-03-17T00:41:43.754Z,1.50
2023-03-17T00:44:11.959Z,1.50
2023-03-17T00:46:41.695Z,1.50
2023-03-17T00:49:22.192Z,1.50
2023-03-17T00:51:50.833Z,1.50
2023-03-17T00:54:19.803Z,1.50
2023-03-17T00:56:48.121Z,1.50
2023-03-17T00:59:26.610Z,1.50
2023-03-17T01:01:56.575Z,1.40
2023-03-17T01:04:24.115Z,1.40
2023-03-17T01:06:54.177Z,1.40
2023-03-17T01:09:26.014Z,1.50
2023-03-17T01:11:53.660Z,1.40
2023-03-17T01:14:20.569Z,1.50
2023-03-17T01:16:47.944Z,1.50
2023-03-17T01:19:15.180Z,1.50
2023-03-17T01:21:42.717Z,1.50
2023-03-17T01:24:09.793Z,1.50
2023-03-17T01:26:37.342Z,1.50
2023-03-17T01:29:04.943Z,1.60
2023-03-17T01:31:34.555Z,1.50
2023-03-17T01:34:02.735Z,1.50
2023-03-17T01:36:29.692Z,1.50
2023-03-17T01:38:57.337Z,1.50
2023-03-17T01:41:25.156Z,1.40
2023-03-17T01:43:52.019Z,1.40
2023-03-17T01:46:32.078Z,1.50
2023-03-17T01:49:17.636Z,1.50
2023-03-17T01:52:09.254Z,1.50
2023-03-17T01:54:56.369Z,1.50
2023-03-17T01:57:29.581Z,1.60
2023-03-17T02:00:08.237Z,1.50
2023-03-17T02:02:37.829Z,1.50
2023-03-17T02:05:07.045Z,1.40
2023-03-17T02:07:34.189Z,1.40
2023-03-17T02:10:03.113Z,1.40
2023-03-17T02:12:30.536Z,1.50
2023-03-17T02:14:57.958Z,1.40
2023-03-17T02:17:27.348Z,1.40
2023-03-17T02:19:55.889Z,1.30
2023-03-17T02:22:24.019Z,1.30
2023-03-17T02:24:58.416Z,1.40
2023-03-17T02:27:34.869Z,1.30
2023-03-17T02:30:02.590Z,1.20
2023-03-17T02:32:29.606Z,1.20
2023-03-17T02:34:56.506Z,1.20
2023-03-17T02:37:23.761Z,1.20
2023-03-17T02:39:50.644Z,1.20
2023-03-17T02:42:17.964Z,1.10
2023-03-17T02:44:45.563Z,1.20
2023-03-17T02:47:14.356Z,1.20
2023-03-17T02:49:42.038Z,1.20
2023-03-17T02:52:09.405Z,1.20
2023-03-17T02:54:36.361Z,1.10
2023-03-17T02:57:03.264Z,1.10
2023-03-17T02:59:30.215Z,1.10
2023-03-17T03:01:57.293Z,1.10
2023-03-17T03:04:24.565Z,1.10
2023-03-17T03:06:51.768Z,1.00
2023-03-17T03:09:18.631Z,1.10
2023-03-17T03:11:46.611Z,1.10
2023-03-17T03:14:13.899Z,1.20
2023-03-17T03:16:43.003Z,1.10
2023-03-17T03:19:10.257Z,1.10
2023-03-17T03:21:39.670Z,1.10
2023-03-17T03:24:07.284Z,1.10
2023-03-17T03:26:34.267Z,1.10
2023-03-17T03:29:01.566Z,1.00
2023-03-17T03:31:28.590Z,1.00
2023-03-17T03:33:55.517Z,1.00
2023-03-17T03:36:22.656Z,1.00
2023-03-17T03:38:49.672Z,1.00
2023-03-17T03:41:16.528Z,1.00
2023-03-17T03:43:43.596Z,1.00
2023-03-17T03:46:11.001Z,1.00
2023-03-17T03:48:37.913Z,1.00
2023-03-17T03:51:04.952Z,1.00
2023-03-17T03:53:31.948Z,1.00
2023-03-17T03:56:00.980Z,1.00
2023-03-17T03:58:27.939Z,1.00
2023-03-17T04:00:54.877Z,1.10
2023-03-17T04:03:21.806Z,1.00
2023-03-17T04:05:51.328Z,1.00
2023-03-17T04:08:18.292Z,1.00
2023-03-17T04:10:45.314Z,1.00
2023-03-17T04:13:13.008Z,1.00
2023-03-17T04:15:40.006Z,1.10
2023-03-17T04:18:07.083Z,1.10
2023-03-17T04:20:34.030Z,1.10
2023-03-17T04:23:01.187Z,1.10
2023-03-17T04:25:28.280Z,1.10
2023-03-17T04:27:55.193Z,1.10
2023-03-17T04:30:22.168Z,1.10
2023-03-17T04:32:49.181Z,1.00
2023-03-17T04:35:19.071Z,1.00
2023-03-17T04:37:46.654Z,1.00
2023-03-17T04:40:14.743Z,0.90
2023-03-17T04:42:42.065Z,0.90
2023-03-17T04:45:11.477Z,0.90
2023-03-17T04:47:38.604Z,0.80
2023-03-17T04:50:08.198Z,0.80
2023-03-17T04:52:36.491Z,0.70
2023-03-17T04:55:05.219Z,0.70
2023-03-17T04:57:33.263Z,0.70
2023-03-17T05:00:00.325Z,0.70
2023-03-17T05:02:27.404Z,0.70
2023-03-17T05:04:54.302Z,0.70
2023-03-17T05:07:21.201Z,0.80
2023-03-17T05:09:48.263Z,0.80
2023-03-17T05:12:15.612Z,0.80
2023-03-17T05:14:42.475Z,1.00
2023-03-17T05:17:09.339Z,1.00
2023-03-17T05:19:36.578Z,0.90
2023-03-17T05:22:03.514Z,1.00
2023-03-17T05:24:30.708Z,1.00
2023-03-17T05:26:57.684Z,1.00
2023-03-17T05:29:24.624Z,1.10
2023-03-17T05:31:52.001Z,1.00
2023-03-17T05:34:18.911Z,1.00
2023-03-17T05:36:46.564Z,1.10
2023-03-17T05:39:14.676Z,1.10
2023-03-17T05:41:41.777Z,1.10
2023-03-17T05:44:08.946Z,1.10
2023-03-17T05:46:35.898Z,1.20
2023-03-17T05:49:03.294Z,1.20
2023-03-17T05:51:30.369Z,1.20
2023-03-17T05:53:57.663Z,1.10
2023-03-17T05:56:26.926Z,1.00
2023-03-17T05:58:53.770Z,0.90
2023-03-17T06:01:21.097Z,0.90
2023-03-17T06:03:48.455Z,0.90
2023-03-17T06:06:15.724Z,0.80
2023-03-17T06:08:42.632Z,0.90
2023-03-17T06:11:09.569Z,0.90
2023-03-17T06:13:36.680Z,0.90
2023-03-17T06:16:03.733Z,1.10
2023-03-17T06:18:30.829Z,1.10
2023-03-17T06:20:57.774Z,1.20
2023-03-17T06:23:24.697Z,1.20
2023-03-17T06:25:53.900Z,1.30
2023-03-17T06:28:20.870Z,1.40
2023-03-17T06:30:47.932Z,1.40
2023-03-17T06:33:15.992Z,1.40
2023-03-17T06:35:42.931Z,1.50
2023-03-17T06:38:09.944Z,1.50
2023-03-17T06:40:37.100Z,1.60
2023-03-17T06:43:04.033Z,1.60
2023-03-17T06:45:33.204Z,1.60
2023-03-17T06:48:00.306Z,1.60
2023-03-17T06:50:27.416Z,1.60
2023-03-17T06:52:54.365Z,1.60
2023-03-17T06:55:21.653Z,1.60
2023-03-17T06:57:50.932Z,1.70
2023-03-17T07:00:19.267Z,1.80
2023-03-17T07:02:46.307Z,1.80
2023-03-17T07:05:14.084Z,1.90
2023-03-17T07:07:41.138Z,1.90
2023-03-17T07:10:10.503Z,1.90
2023-03-17T07:12:37.875Z,1.80
2023-03-17T07:15:05.266Z,1.80
2023-03-17T07:17:32.159Z,1.80
2023-03-17T07:19:59.179Z,2.00
2023-03-17T07:22:26.396Z,1.90
2023-03-17T07:24:53.389Z,2.00
2023-03-17T07:27:23.094Z,2.00
2023-03-17T07:29:50.179Z,1.90
2023-03-17T07:32:17.214Z,1.90
2023-03-17T07:34:44.238Z,1.90
2023-03-17T07:37:12.279Z,1.80
2023-03-17T07:39:40.014Z,1.80
2023-03-17T07:42:07.120Z,1.80
2023-03-17T07:44:34.468Z,1.80
2023-03-17T07:47:01.565Z,1.70
2023-03-17T07:49:40.692Z,1.60
2023-03-17T07:52:10.739Z,1.70
2023-03-17T07:54:37.852Z,1.60
2023-03-17T07:57:06.416Z,1.60
2023-03-17T07:59:33.923Z,1.70
2023-03-17T08:02:01.727Z,1.70
2023-03-17T08:04:29.432Z,1.70
2023-03-17T08:06:57.582Z,1.60
2023-03-17T08:09:25.930Z,1.60
2023-03-17T08:11:52.882Z,1.60
2023-03-17T08:14:19.947Z,1.60
2023-03-17T08:16:47.375Z,1.60
2023-03-17T08:19:14.398Z,1.60
2023-03-17T08:21:41.437Z,1.50
2023-03-17T08:24:08.499Z,1.50
2023-03-17T08:26:36.266Z,1.50
2023-03-17T08:29:05.086Z,1.50
2023-03-17T08:31:34.024Z,1.50
2023-03-17T08:34:02.798Z,1.50
2023-03-17T08:36:30.339Z,1.50
2023-03-17T08:38:57.268Z,1.50
2023-03-17T08:41:26.953Z,1.50
2023-03-17T08:43:54.994Z,1.50
2023-03-17T08:46:32.736Z,1.40
2023-03-17T08:49:01.036Z,1.30
2023-03-17T08:51:31.265Z,1.40
2023-03-17T08:53:58.858Z,1.40
2023-03-17T08:56:27.173Z,1.40
2023-03-17T08:58:54.529Z,1.40
2023-03-17T09:01:23.105Z,1.50
2023-03-17T09:03:52.911Z,1.40
2023-03-17T09:06:19.791Z,1.40
2023-03-17T09:08:47.655Z,1.40
2023-03-17T09:11:17.279Z,1.40
2023-03-17T09:13:44.869Z,1.50
2023-03-17T09:16:12.254Z,1.40
2023-03-17T09:18:39.754Z,1.30
2023-03-17T09:21:07.499Z,1.40
2023-03-17T09:23:34.396Z,1.30
2023-03-17T09:26:02.403Z,1.20
2023-03-17T09:28:29.425Z,1.30
2023-03-17T09:31:01.377Z,1.40
2023-03-17T09:33:28.853Z,1.40
2023-03-17T09:35:59.255Z,1.50
2023-03-17T09:38:27.651Z,1.40
2023-03-17T09:41:20.972Z,1.50
2023-03-17T09:43:50.765Z,1.50
2023-03-17T09:46:20.838Z,1.50
2023-03-17T09:49:04.114Z,1.50
2023-03-17T09:51:33.262Z,1.60
2023-03-17T09:54:12.892Z,1.80
2023-03-17T09:56:43.452Z,1.80
2023-03-17T09:59:30.452Z,1.80
2023-03-17T10:01:57.827Z,1.70
2023-03-17T10:04:25.354Z,1.60
2023-03-17T10:06:57.939Z,1.70
2023-03-17T10:09:46.959Z,1.80
2023-03-17T10:12:41.776Z,1.90
2023-03-17T10:15:27.924Z,2.00
2023-03-17T10:17:55.481Z,2.00
2023-03-17T10:20:33.929Z,2.00
2023-03-17T10:23:07.656Z,1.90
2023-03-17T10:25:36.682Z,2.00
2023-03-17T10:28:21.716Z,2.00
2023-03-17T10:30:48.782Z,2.00
2023-03-17T10:33:16.059Z,1.90
2023-03-17T10:35:45.104Z,2.00
2023-03-17T10:38:20.979Z,2.10
2023-03-17T10:40:59.605Z,2.10
2023-03-17T10:43:47.472Z,2.10
2023-03-17T10:46:21.678Z,2.10
2023-03-17T10:49:10.955Z,2.10
2023-03-17T10:51:40.767Z,2.20
2023-03-17T10:54:15.957Z,2.30
2023-03-17T10:56:43.875Z,2.40
2023-03-17T10:59:25.855Z,2.30
2023-03-17T11:02:15.918Z,2.40
2023-03-17T11:04:43.431Z,2.40
2023-03-17T11:07:16.705Z,2.50
2023-03-17T11:09:44.179Z,2.90
2023-03-17T11:12:41.106Z,4.80
2023-03-17T11:15:15.660Z,6.30
2023-03-17T11:18:07.855Z,8.50
2023-03-17T11:23:11.553Z,11.50
2023-03-17T11:25:42.964Z,10.30
2023-03-17T11:28:22.260Z,9.10
2023-03-17T11:31:08.532Z,7.80
2023-03-17T11:33:49.753Z,6.80
2023-03-17T11:36:30.660Z,6.90
2023-03-17T11:39:43.291Z,7.20
2023-03-17T11:42:27.655Z,8.20
2023-03-17T11:44:57.494Z,8.90
2023-03-17T11:47:48.712Z,8.60
2023-03-17T11:50:44.143Z,9.70
2023-03-17T11:53:50.136Z,9.80
2023-03-17T11:56:45.572Z,10.10
2023-03-17T11:59:44.299Z,8.90
2023-03-17T12:02:30.385Z,7.20
2023-03-17T12:05:09.851Z,6.60
2023-03-17T12:07:57.134Z,7.20
2023-03-17T12:10:25.793Z,8.40
2023-03-17T12:13:01.383Z,8.00
2023-03-17T12:15:37.575Z,7.40
2023-03-17T12:18:18.418Z,6.70
2023-03-17T12:20:57.113Z,6.20
2023-03-17T12:24:02.368Z,5.90
2023-03-17T12:26:41.521Z,5.70
2023-03-17T12:29:24.764Z,5.60
2023-03-17T12:31:59.772Z,5.70
2023-03-17T12:34:44.697Z,5.50
2023-03-17T12:37:14.543Z,5.30
2023-03-17T12:40:07.092Z,5.40
2023-03-17T12:43:02.125Z,5.40
2023-03-17T12:45:39.184Z,5.40
2023-03-17T12:48:27.403Z,5.20
2023-03-17T12:51:06.459Z,5.00
2023-03-17T12:53:43.161Z,5.00
2023-03-17T12:56:33.897Z,5.20
2023-03-17T12:59:08.796Z,5.30
2023-03-17T13:01:44.743Z,5.50
2023-03-17T13:04:32.399Z,5.40
2023-03-17T13:07:19.499Z,5.60
2023-03-17T13:10:18.914Z,5.60
2023-03-17T13:12:48.872Z,5.70
2023-03-17T13:15:38.250Z,5.50
2023-03-17T13:18:17.143Z,5.40
2023-03-17T13:20:45.850Z,5.50
2023-03-17T13:23:17.759Z,5.70
2023-03-17T13:25:53.644Z,5.60
2023-03-17T13:28:30.004Z,5.50
2023-03-17T13:31:28.446Z,5.40
2023-03-17T13:33:57.749Z,5.40
2023-03-17T13:37:01.836Z,5.50
2023-03-17T13:39:44.241Z,5.50
2023-03-17T13:42:35.271Z,5.70
2023-03-17T13:45:44.323Z,5.70
2023-03-17T13:48:30.708Z,5.60
2023-03-17T13:51:14.489Z,5.60
2023-03-17T13:53:47.305Z,5.60
2023-03-17T13:56:19.977Z,5.70
2023-03-17T13:59:01.724Z,5.80
2023-03-17T14:01:32.721Z,5.80
2023-03-17T14:04:03.285Z,5.90
2023-03-17T14:06:31.688Z,5.90
2023-03-17T14:09:04.832Z,5.90
2023-03-17T14:11:45.317Z,5.90
2023-03-17T14:14:36.758Z,5.80
2023-03-17T14:17:22.707Z,5.70
2023-03-17T14:20:18.622Z,5.60
2023-03-17T14:22:54.479Z,5.60
2023-03-17T14:25:35.774Z,5.70
2023-03-17T14:28:10.971Z,5.70
2023-03-17T14:30:39.067Z,5.80
2023-03-17T14:33:27.228Z,5.90
2023-03-17T14:35:58.299Z,5.80
2023-03-17T14:38:29.133Z,5.80
2023-03-17T14:41:16.591Z,5.80
2023-03-17T14:43:44.625Z,5.80
2023-03-17T14:46:17.814Z,5.80
2023-03-17T14:48:48.627Z,5.70
2023-03-17T14:51:33.697Z,5.80
2023-03-17T14:54:03.686Z,5.80
2023-03-17T14:56:38.311Z,5.80
2023-03-17T14:59:27.522Z,5.80
2023-03-17T15:02:02.384Z,5.80
2023-03-17T15:04:32.679Z,5.80
2023-03-17T15:07:02.228Z,5.80
2023-03-17T15:09:37.205Z,5.90
2023-03-17T15:12:13.893Z,5.80
2023-03-17T15:14:41.538Z,5.80
2023-03-17T15:17:37.353Z,5.80
2023-03-17T15:20:07.609Z,5.80
2023-03-17T15:22:46.920Z,5.80
2023-03-17T15:25:31.895Z,5.80
2023-03-17T15:27:59.161Z,5.80
2023-03-17T15:30:34.530Z,5.80
2023-03-17T15:33:29.440Z,5.80
2023-03-17T15:35:57.019Z,5.80
2023-03-17T15:38:24.077Z,5.80
2023-03-17T15:40:51.142Z,5.70
2023-03-17T15:43:19.321Z,5.70
2023-03-17T15:45:47.816Z,5.70
2023-03-17T15:48:26.483Z,5.60
2023-03-17T15:50:55.459Z,5.60
2023-03-17T15:53:22.968Z,5.60
2023-03-17T15:55:49.903Z,5.50
2023-03-17T15:58:16.770Z,5.50
2023-03-17T16:00:47.347Z,5.50
2023-03-17T16:03:32.503Z,5.50
2023-03-17T16:06:01.132Z,5.50
2023-03-17T16:08:29.003Z,5.40
2023-03-17T16:10:56.177Z,5.60
2023-03-17T16:13:23.119Z,5.40
2023-03-17T16:15:56.405Z,5.50
2023-03-17T16:18:34.008Z,5.40
2023-03-17T16:21:02.475Z,5.40
2023-03-17T16:23:33.638Z,5.40
2023-03-17T16:26:14.240Z,5.40
2023-03-17T16:28:43.059Z,5.40
2023-03-17T16:31:30.925Z,5.30
2023-03-17T16:33:58.139Z,5.30
2023-03-17T16:36:27.917Z,5.20
2023-03-17T16:38:55.224Z,5.20
2023-03-17T16:41:25.131Z,5.10
2023-03-17T16:43:57.731Z,5.10
2023-03-17T16:46:27.469Z,5.00
2023-03-17T16:48:54.565Z,4.90
2023-03-17T16:51:22.068Z,4.90
2023-03-17T16:53:49.045Z,4.90
2023-03-17T16:56:18.882Z,4.90
2023-03-17T16:58:46.878Z,4.80
2023-03-17T17:01:31.800Z,4.80
2023-03-17T17:03:58.728Z,4.80
2023-03-17T17:06:25.742Z,4.80
2023-03-17T17:08:53.247Z,4.70
2023-03-17T17:11:20.873Z,4.70
2023-03-17T17:13:49.185Z,4.70
2023-03-17T17:16:30.885Z,4.70
2023-03-17T17:18:59.329Z,4.70
2023-03-17T17:21:26.942Z,4.60
2023-03-17T17:23:54.640Z,4.60
2023-03-17T17:26:22.210Z,4.60
2023-03-17T17:28:49.332Z,4.50
2023-03-17T17:31:16.795Z,4.60
2023-03-17T17:33:43.739Z,4.50
2023-03-17T17:36:15.327Z,4.60
2023-03-17T17:38:43.039Z,4.60
2023-03-17T17:41:12.144Z,4.60
2023-03-17T17:43:39.880Z,4.60
2023-03-17T17:46:21.443Z,4.60
2023-03-17T17:48:48.778Z,4.60
2023-03-17T17:51:15.906Z,4.70
2023-03-17T17:53:43.057Z,4.70
2023-03-17T17:56:15.000Z,4.60
2023-03-17T17:58:42.560Z,4.70
2023-03-17T18:01:11.879Z,4.70
2023-03-17T18:03:41.598Z,4.70
2023-03-17T18:06:08.729Z,4.70
2023-03-17T18:08:35.595Z,4.70
2023-03-17T18:11:02.441Z,4.70
2023-03-17T18:13:29.364Z,4.80
2023-03-17T18:15:56.398Z,4.70
2023-03-17T18:18:23.335Z,4.80
2023-03-17T18:20:51.008Z,4.70
2023-03-17T18:23:18.016Z,4.70
2023-03-17T18:25:44.919Z,4.70
2023-03-17T18:28:12.637Z,4.70
2023-03-17T18:30:39.542Z,4.70
2023-03-17T18:33:14.733Z,4.70
2023-03-17T18:35:44.216Z,4.70
2023-03-17T18:38:11.440Z,4.70
2023-03-17T18:40:38.338Z,4.70
2023-03-17T18:43:05.255Z,4.70
2023-03-17T18:45:32.315Z,4.70
2023-03-17T18:47:59.352Z,4.70
2023-03-17T18:50:26.605Z,4.70
2023-03-17T18:52:55.974Z,4.70
2023-03-17T18:55:23.078Z,4.70
2023-03-17T18:57:50.122Z,4.70
2023-03-17T19:00:18.673Z,4.70
2023-03-17T19:02:46.498Z,4.60
2023-03-17T19:05:14.355Z,4.70
2023-03-17T19:07:41.939Z,4.60
2023-03-17T19:10:10.501Z,4.60
2023-03-17T19:12:37.788Z,4.60
2023-03-17T19:15:06.764Z,4.60
2023-03-17T19:17:35.003Z,4.60
2023-03-17T19:20:01.865Z,4.60
2023-03-17T19:22:28.729Z,4.60
2023-03-17T19:24:55.865Z,4.70
2023-03-17T19:27:22.797Z,4.70
2023-03-17T19:29:49.682Z,4.70
2023-03-17T19:32:17.350Z,4.70
2023-03-17T19:34:44.579Z,4.70
2023-03-17T19:37:11.677Z,4.70
2023-03-17T19:39:38.582Z,4.80
2023-03-17T19:42:05.907Z,4.70
2023-03-17T19:44:33.752Z,4.80
2023-03-17T19:47:05.085Z,4.80
2023-03-17T19:49:32.450Z,4.70
2023-03-17T19:51:59.351Z,4.70
2023-03-17T19:54:26.255Z,4.80
2023-03-17T19:56:53.160Z,4.70
2023-03-17T19:59:20.323Z,4.70
2023-03-17T20:01:48.800Z,4.70
2023-03-17T20:04:19.638Z,4.70
2023-03-17T20:06:47.201Z,4.70
2023-03-17T20:09:14.658Z,4.70
2023-03-17T20:11:41.694Z,4.70
2023-03-17T20:14:08.755Z,4.70
2023-03-17T20:16:36.625Z,4.70
2023-03-17T20:19:04.385Z,4.70
2023-03-17T20:21:31.697Z,4.70
2023-03-17T20:23:58.739Z,4.60
2023-03-17T20:26:25.854Z,4.60
2023-03-17T20:28:53.876Z,4.60
2023-03-17T20:31:20.926Z,4.60
2023-03-17T20:33:47.980Z,4.60
2023-03-17T20:36:15.005Z,4.60
2023-03-17T20:38:43.787Z,4.60
2023-03-17T20:41:17.318Z,4.60
2023-03-17T20:43:45.563Z,4.50
2023-03-17T20:46:16.684Z,4.50
2023-03-17T20:48:44.305Z,4.50
2023-03-17T20:51:16.792Z,4.50
2023-03-17T20:53:46.341Z,4.50
2023-03-17T20:56:19.886Z,4.50
2023-03-17T20:58:48.636Z,4.50
2023-03-17T21:01:20.789Z,4.60
2023-03-17T21:03:48.691Z,4.50
2023-03-17T21:06:16.746Z,4.50
2023-03-17T21:08:46.309Z,4.50
2023-03-17T21:11:19.023Z,4.50
2023-03-17T21:13:46.623Z,4.50
2023-03-17T21:16:25.025Z,4.50
2023-03-17T21:18:52.671Z,4.50
2023-03-17T21:21:20.600Z,4.50
2023-03-17T21:23:47.680Z,4.50
2023-03-17T21:26:15.306Z,4.50
2023-03-17T21:28:42.991Z,4.50
2023-03-17T21:31:12.291Z,4.50
2023-03-17T21:33:39.609Z,4.40
2023-03-17T21:36:07.461Z,4.40
2023-03-17T21:38:34.894Z,4.40
2023-03-17T21:41:30.871Z,4.40
2023-03-17T21:43:58.159Z,4.50
2023-03-17T21:46:25.600Z,4.50
2023-03-17T21:48:54.094Z,4.50
2023-03-17T21:51:21.072Z,4.50
2023-03-17T21:53:48.268Z,4.50
2023-03-17T21:56:15.239Z,4.50
2023-03-17T21:58:42.115Z,4.50
2023-03-17T22:01:09.355Z,4.50
2023-03-17T22:03:37.305Z,4.50
2023-03-17T22:06:05.638Z,4.50
2023-03-17T22:08:32.813Z,4.50
2023-03-17T22:11:00.210Z,4.50
2023-03-17T22:13:27.282Z,4.50
2023-03-17T22:15:54.352Z,4.50
2023-03-17T22:18:21.313Z,4.60
2023-03-17T22:20:49.080Z,4.60
2023-03-17T22:23:15.992Z,4.60
2023-03-17T22:25:42.857Z,4.60
2023-03-17T22:28:09.732Z,4.60
2023-03-17T22:30:39.501Z,4.70
2023-03-17T22:33:07.640Z,4.60
2023-03-17T22:35:35.400Z,4.60
2023-03-17T22:38:03.059Z,4.60
2023-03-17T22:40:31.041Z,4.60
2023-03-17T22:42:59.286Z,4.70
2023-03-17T22:45:26.666Z,4.70
2023-03-17T22:47:54.354Z,4.60
2023-03-17T22:50:21.410Z,4.60
2023-03-17T22:52:48.770Z,4.60
2023-03-17T22:55:15.836Z,4.60
2023-03-17T22:57:42.893Z,4.70
2023-03-17T23:00:17.294Z,4.60
2023-03-17T23:02:45.960Z,4.70
2023-03-17T23:05:13.749Z,4.70
2023-03-17T23:07:50.461Z,4.70
2023-03-17T23:10:23.101Z,4.60
2023-03-17T23:12:51.001Z,4.70
2023-03-17T23:15:19.830Z,4.70
2023-03-17T23:17:49.273Z,4.70
2023-03-17T23:20:16.871Z,4.70
2023-03-17T23:22:43.857Z,4.70
2023-03-17T23:25:11.033Z,4.70
2023-03-17T23:27:37.967Z,4.70
2023-03-17T23:30:05.966Z,4.80
2023-03-17T23:32:33.028Z,4.80
2023-03-17T23:35:00.105Z,4.90
2023-03-17T23:37:27.502Z,4.80
2023-03-17T23:39:55.140Z,4.90
2023-03-17T23:42:22.432Z,4.90
2023-03-17T23:44:50.367Z,5.00
2023-03-17T23:47:17.503Z,5.00
2023-03-17T23:49:44.481Z,5.00
2023-03-17T23:52:11.510Z,5.10
2023-03-17T23:54:39.586Z,5.00
2023-03-17T23:57:07.809Z,5.00
2023-03-17T23:59:35.193Z,5.10
